createdAt,value
2023-05-04T00:01:05.246Z,60.90
2023-05-04T00:03:34.376Z,61.20
2023-05-04T00:06:03.325Z,61.00
2023-05-04T00:08:32.223Z,61.30
2023-05-04T00:11:02.964Z,61.70
2023-05-04T00:13:32.157Z,61.40
2023-05-04T00:16:01.205Z,62.30
2023-05-04T00:18:30.554Z,62.50
2023-05-04T00:20:59.761Z,62.70
2023-05-04T00:23:28.633Z,62.80
2023-05-04T00:25:57.722Z,62.90
2023-05-04T00:28:26.641Z,62.80
2023-05-04T00:30:55.934Z,62.70
2023-05-04T00:33:25.234Z,61.60
2023-05-04T00:35:54.428Z,61.60
2023-05-04T00:38:23.314Z,61.40
2023-05-04T00:40:52.082Z,61.00
2023-05-04T00:43:21.101Z,61.60
2023-05-04T00:45:50.192Z,61.40
2023-05-04T00:48:19.188Z,61.20
2023-05-04T00:50:48.903Z,61.30
2023-05-04T00:53:17.990Z,61.20
2023-05-04T00:55:46.964Z,61.30
2023-05-04T00:58:16.086Z,61.10
2023-05-04T01:00:45.027Z,61.30
2023-05-04T01:03:14.242Z,61.50
2023-05-04T01:05:43.468Z,61.10
2023-05-04T01:08:12.364Z,62.00
2023-05-04T01:10:41.252Z,61.30
2023-05-04T01:13:10.439Z,61.40
2023-05-04T01:15:39.671Z,61.40
2023-05-04T01:18:08.882Z,61.80
2023-05-04T01:20:37.820Z,61.50
2023-05-04T01:23:06.948Z,62.20
2023-05-04T01:25:36.140Z,61.50
2023-05-04T01:28:05.494Z,62.00
2023-05-04T01:30:35.778Z,61.80
2023-05-04T01:33:05.122Z,62.00
2023-05-04T01:35:34.164Z,62.10
2023-05-04T01:38:03.358Z,62.10
2023-05-04T01:40:32.551Z,62.00
2023-05-04T01:43:01.750Z,62.00
2023-05-04T01:45:31.149Z,62.00
2023-05-04T01:48:00.324Z,62.30
2023-05-04T01:50:29.761Z,61.90
2023-05-04T01:52:58.949Z,62.20
2023-05-04T01:55:28.037Z,62.00
2023-05-04T01:57:57.355Z,62.20
2023-05-04T02:00:26.651Z,62.30
2023-05-04T02:02:55.906Z,62.20
2023-05-04T02:05:25.558Z,62.40
2023-05-04T02:07:54.852Z,62.00
2023-05-04T02:10:24.045Z,62.50
2023-05-04T02:12:53.181Z,62.50
2023-05-04T02:15:22.460Z,62.60
2023-05-04T02:17:51.896Z,62.90
2023-05-04T02:20:21.149Z,62.80
2023-05-04T02:22:50.862Z,63.00
2023-05-04T02:25:19.953Z,62.70
2023-05-04T02:27:49.053Z,62.60
2023-05-04T02:30:18.366Z,62.50
2023-05-04T02:32:47.621Z,62.80
2023-05-04T02:35:17.068Z,63.00
2023-05-04T02:37:46.367Z,62.90
2023-05-04T02:40:15.671Z,62.90
2023-05-04T02:42:44.856Z,63.20
2023-05-04T02:45:13.958Z,63.30
2023-05-04T02:47:44.857Z,63.40
2023-05-04T02:50:14.105Z,63.30
2023-05-04T02:52:43.498Z,67.00
2023-05-04T02:55:12.898Z,66.70
2023-05-04T02:57:42.205Z,67.40
2023-05-04T03:00:11.506Z,67.60
2023-05-04T03:02:40.982Z,66.70
2023-05-04T03:05:10.526Z,66.60
2023-05-04T03:07:39.794Z,66.80
2023-05-04T03:10:08.963Z,67.20
2023-05-04T03:12:38.353Z,67.40
2023-05-04T03:15:07.616Z,67.20
2023-05-04T03:17:37.270Z,67.30
2023-05-04T03:20:06.773Z,67.30
2023-05-04T03:22:36.132Z,67.10
2023-05-04T03:25:05.836Z,67.10
2023-05-04T03:27:35.258Z,67.50
2023-05-04T03:30:04.584Z,66.40
2023-05-04T03:32:35.295Z,64.40
2023-05-04T03:35:04.476Z,64.50
2023-05-04T03:37:33.573Z,64.50
2023-05-04T03:40:03.063Z,64.50
2023-05-04T03:42:32.364Z,64.60
2023-05-04T03:45:03.899Z,64.50
2023-05-04T03:47:32.112Z,64.40
2023-05-04T03:50:01.400Z,64.30
2023-05-04T03:52:30.610Z,64.70
2023-05-04T03:54:59.808Z,64.30
2023-05-04T03:57:29.299Z,64.50
2023-05-04T03:59:58.808Z,64.80
2023-05-04T04:02:28.552Z,64.90
2023-05-04T04:04:58.342Z,64.80
2023-05-04T04:07:27.732Z,64.60
2023-05-04T04:09:56.918Z,64.80
2023-05-04T04:12:26.658Z,64.80
2023-05-04T04:14:56.050Z,64.80
2023-05-04T04:17:25.257Z,64.60
2023-05-04T04:19:55.768Z,64.70
2023-05-04T04:22:25.084Z,64.60
2023-05-04T04:24:54.377Z,65.10
2023-05-04T04:27:23.679Z,64.50
2023-05-04T04:29:52.988Z,64.40
2023-05-04T04:32:22.307Z,64.40
2023-05-04T04:34:51.377Z,64.30
2023-05-04T04:37:20.678Z,64.20
2023-05-04T04:39:50.082Z,64.20
2023-05-04T04:42:19.167Z,64.10
2023-05-04T04:44:48.476Z,64.20
2023-05-04T04:47:17.669Z,64.20
2023-05-04T04:49:46.789Z,64.20
2023-05-04T04:52:15.977Z,64.00
2023-05-04T04:54:45.405Z,64.00
2023-05-04T04:57:14.769Z,64.00
2023-05-04T04:59:44.287Z,63.90
2023-05-04T05:02:13.581Z,63.90
2023-05-04T05:04:43.042Z,63.80
2023-05-04T05:07:13.128Z,63.70
2023-05-04T05:09:42.608Z,63.80
2023-05-04T05:12:11.621Z,63.60
2023-05-04T05:14:40.693Z,63.50
2023-05-04T05:17:10.056Z,63.50
2023-05-04T05:19:40.978Z,63.40
2023-05-04T05:22:09.717Z,63.30
2023-05-04T05:24:38.823Z,63.30
2023-05-04T05:27:08.028Z,63.10
2023-05-04T05:29:37.319Z,63.10
2023-05-04T05:32:06.416Z,63.00
2023-05-04T05:34:35.610Z,63.00
2023-05-04T05:37:05.324Z,63.00
2023-05-04T05:39:34.522Z,62.90
2023-05-04T05:42:03.718Z,63.00
2023-05-04T05:44:32.917Z,63.10
2023-05-04T05:47:01.914Z,63.10
2023-05-04T05:49:31.012Z,63.00
2023-05-04T05:52:00.324Z,63.00
2023-05-04T05:54:29.612Z,63.10
2023-05-04T05:56:58.695Z,63.00
2023-05-04T05:59:27.996Z,63.00
2023-05-04T06:02:01.741Z,62.90
2023-05-04T06:04:30.960Z,62.80
2023-05-04T06:07:00.211Z,62.70
2023-05-04T06:09:29.710Z,62.60
2023-05-04T06:11:59.006Z,62.50
2023-05-04T06:14:28.110Z,62.60
2023-05-04T06:16:57.307Z,62.50
2023-05-04T06:19:26.501Z,62.30
2023-05-04T06:21:55.700Z,62.30
2023-05-04T06:24:25.025Z,62.40
2023-05-04T06:26:54.294Z,62.30
2023-05-04T06:29:23.494Z,62.20
2023-05-04T06:31:53.076Z,62.20
2023-05-04T06:34:22.411Z,62.20
2023-05-04T06:36:51.799Z,62.10
2023-05-04T06:39:20.793Z,62.00
2023-05-04T06:41:50.204Z,61.90
2023-05-04T06:44:19.499Z,61.80
2023-05-04T06:46:48.398Z,61.70
2023-05-04T06:49:17.603Z,61.60
2023-05-04T06:51:46.685Z,61.60
2023-05-04T06:54:15.680Z,61.50
2023-05-04T06:56:44.882Z,61.40
2023-05-04T06:59:13.978Z,61.40
2023-05-04T07:01:42.796Z,61.30
2023-05-04T07:04:11.758Z,61.20
2023-05-04T07:06:40.815Z,61.10
2023-05-04T07:09:09.742Z,61.00
2023-05-04T07:11:39.047Z,60.80
2023-05-04T07:14:10.348Z,60.90
2023-05-04T07:16:38.933Z,60.80
2023-05-04T07:19:07.948Z,60.80
2023-05-04T07:21:37.183Z,60.80
2023-05-04T07:24:06.482Z,60.80
2023-05-04T07:26:35.765Z,60.80
2023-05-04T07:29:04.878Z,60.80
2023-05-04T07:31:34.115Z,60.70
2023-05-04T07:34:03.527Z,60.60
2023-05-04T07:36:32.975Z,60.60
2023-05-04T07:39:02.073Z,60.50
2023-05-04T07:41:31.154Z,60.50
2023-05-04T07:44:00.665Z,60.50
2023-05-04T07:46:29.975Z,60.50
2023-05-04T07:48:59.054Z,60.30
2023-05-04T07:51:28.260Z,60.30
2023-05-04T07:53:57.461Z,60.30
2023-05-04T07:56:26.473Z,60.20
2023-05-04T07:58:55.541Z,60.10
2023-05-04T08:01:24.862Z,60.10
2023-05-04T08:03:54.303Z,60.00
2023-05-04T08:06:23.345Z,60.10
2023-05-04T08:08:52.980Z,60.00
2023-05-04T08:11:22.055Z,60.00
2023-05-04T08:13:51.067Z,60.00
2023-05-04T08:16:19.944Z,60.00
2023-05-04T08:18:49.339Z,59.90
2023-05-04T08:21:18.640Z,59.80
2023-05-04T08:23:47.597Z,59.80
2023-05-04T08:26:16.713Z,59.80
2023-05-04T08:28:46.651Z,59.80
2023-05-04T08:31:15.682Z,59.70
2023-05-04T08:33:44.836Z,59.60
2023-05-04T15:33:29.318Z,58.30
2023-05-04T15:35:58.713Z,58.10
2023-05-04T15:38:27.911Z,58.40
2023-05-04T15:40:56.902Z,58.40
2023-05-04T15:43:26.100Z,58.00
2023-05-04T15:45:55.516Z,58.40
2023-05-04T15:48:24.912Z,58.30
2023-05-04T15:50:54.291Z,57.90
2023-05-04T15:53:23.630Z,58.00
2023-05-04T15:55:52.699Z,58.60
2023-05-04T15:58:21.692Z,58.30
2023-05-04T16:00:50.844Z,58.40
2023-05-04T16:03:20.404Z,58.50
2023-05-04T16:05:49.596Z,59.20
2023-05-04T16:08:19.077Z,58.50
2023-05-04T16:10:48.410Z,58.90
2023-05-04T16:13:17.847Z,58.80
2023-05-04T16:15:47.215Z,58.80
2023-05-04T16:18:16.518Z,58.90
2023-05-04T16:20:45.608Z,59.00
2023-05-04T16:23:14.801Z,59.00
2023-05-04T16:25:44.013Z,59.80
2023-05-04T16:28:13.385Z,59.80
2023-05-04T16:30:42.605Z,59.80
2023-05-04T16:33:12.026Z,59.60
2023-05-04T16:35:41.311Z,59.50
2023-05-04T16:38:10.615Z,59.50
2023-05-04T16:40:40.033Z,59.20
2023-05-04T16:43:09.008Z,59.50
2023-05-04T16:45:38.323Z,59.30
2023-05-04T16:48:07.903Z,59.40
2023-05-04T16:50:37.229Z,59.50
2023-05-04T16:53:06.624Z,59.20
2023-05-04T16:55:35.859Z,59.20
2023-05-04T16:58:05.354Z,58.80
2023-05-04T17:00:34.835Z,58.80
2023-05-04T17:03:04.301Z,59.10
2023-05-04T17:05:33.637Z,58.90
2023-05-04T17:08:02.834Z,59.20
2023-05-04T17:10:31.829Z,58.90
2023-05-04T17:13:02.586Z,59.10
2023-05-04T17:15:31.987Z,59.30
2023-05-04T17:18:01.106Z,59.20
2023-05-04T17:20:30.465Z,58.80
2023-05-04T17:22:59.681Z,58.90
2023-05-04T17:25:29.092Z,59.30
2023-05-04T17:27:59.593Z,59.30
2023-05-04T17:30:28.667Z,59.30
2023-05-04T17:32:58.239Z,59.00
2023-05-04T17:35:27.284Z,59.20
2023-05-04T17:37:58.770Z,59.50
2023-05-04T17:40:27.285Z,59.40
2023-05-04T17:42:56.937Z,59.90
2023-05-04T17:45:26.565Z,60.40
2023-05-04T17:47:55.751Z,59.30
2023-05-04T17:50:24.943Z,60.20
2023-05-04T17:52:54.146Z,60.10
2023-05-04T17:58:10.964Z,59.90
2023-05-04T18:00:40.054Z,60.70
2023-05-04T18:03:09.472Z,60.70
2023-05-04T18:05:38.762Z,61.20
2023-05-04T18:08:08.166Z,61.40
2023-05-04T18:10:37.459Z,60.40
2023-05-04T18:13:06.852Z,60.60
2023-05-04T18:15:36.380Z,60.60
2023-05-04T18:18:05.936Z,61.30
2023-05-04T18:20:38.378Z,61.10
2023-05-04T18:23:07.635Z,61.40
2023-05-04T18:25:36.844Z,61.10
2023-05-04T18:28:06.068Z,61.60
2023-05-04T18:30:35.241Z,60.80
2023-05-04T18:33:04.474Z,60.70
2023-05-04T18:35:33.753Z,60.70
2023-05-04T18:38:02.942Z,60.80
2023-05-04T18:40:32.248Z,60.70
2023-05-04T18:43:01.649Z,60.90
2023-05-04T18:45:30.758Z,60.80
2023-05-04T18:47:59.949Z,60.70
2023-05-04T18:50:29.436Z,60.40
2023-05-04T18:52:58.642Z,60.00
2023-05-04T18:55:27.952Z,60.00
2023-05-04T18:57:57.355Z,60.60
2023-05-04T19:00:26.654Z,60.40
2023-05-04T19:02:55.868Z,60.80
2023-05-04T19:05:25.244Z,60.90
2023-05-04T19:07:54.450Z,60.70
2023-05-04T19:10:23.746Z,60.10
2023-05-04T19:12:53.100Z,59.80
2023-05-04T19:15:22.454Z,59.90
2023-05-04T19:17:51.793Z,59.80
2023-05-04T19:20:21.151Z,60.40
2023-05-04T19:22:50.664Z,60.00
2023-05-04T19:25:33.179Z,59.50
2023-05-04T19:27:50.383Z,59.70
2023-05-04T19:30:19.586Z,59.70
2023-05-04T19:32:49.140Z,59.90
2023-05-04T19:35:18.284Z,59.60
2023-05-04T19:37:47.386Z,59.30
2023-05-04T19:40:16.591Z,59.90
2023-05-04T19:42:46.102Z,61.50
2023-05-04T19:45:14.982Z,61.10
2023-05-04T19:47:44.202Z,61.50
2023-05-04T19:50:13.282Z,62.00
2023-05-04T19:52:42.245Z,62.10
2023-05-04T19:55:11.774Z,62.00
2023-05-04T19:57:41.222Z,62.20
2023-05-04T20:00:11.291Z,62.20
2023-05-04T20:02:39.691Z,62.30
2023-05-04T20:05:08.662Z,62.40
2023-05-04T20:07:37.559Z,62.50
2023-05-04T20:10:06.812Z,62.60
2023-05-04T20:12:35.971Z,62.80
2023-05-04T20:15:04.912Z,62.70
2023-05-04T20:17:34.115Z,62.60
2023-05-04T20:20:03.548Z,62.50
2023-05-04T20:22:32.672Z,62.40
2023-05-04T20:25:01.714Z,62.70
2023-05-04T20:27:31.036Z,62.70
2023-05-04T20:30:00.456Z,62.70
2023-05-04T20:32:29.669Z,62.70
2023-05-04T20:34:58.961Z,62.70
2023-05-04T20:37:28.322Z,62.50
2023-05-04T20:39:57.530Z,62.70
2023-05-04T20:42:26.845Z,62.70
2023-05-04T20:44:56.142Z,62.70
2023-05-04T20:47:25.614Z,62.70
2023-05-04T20:49:54.845Z,62.70
2023-05-04T20:52:24.251Z,62.70
2023-05-04T20:54:53.319Z,62.70
2023-05-04T20:57:22.287Z,62.50
2023-05-04T20:59:51.748Z,62.40
2023-05-04T21:02:20.974Z,62.30
2023-05-04T21:04:50.023Z,62.10
2023-05-04T21:07:19.022Z,62.90
2023-05-04T21:09:48.327Z,62.00
2023-05-04T21:12:17.317Z,62.00
2023-05-04T21:14:46.520Z,62.10
2023-05-04T21:17:15.717Z,62.10
2023-05-04T21:19:44.602Z,62.50
2023-05-04T21:22:13.595Z,62.20
2023-05-04T21:24:42.696Z,61.80
2023-05-04T21:27:11.900Z,61.50
2023-05-04T21:29:40.982Z,61.30
2023-05-04T21:32:10.393Z,61.00
2023-05-04T21:34:39.384Z,61.10
2023-05-04T21:37:08.278Z,60.90
2023-05-04T21:39:37.383Z,60.70
2023-05-04T21:42:06.366Z,60.90
2023-05-04T21:44:35.352Z,61.40
2023-05-04T21:47:04.395Z,61.10
2023-05-04T21:49:33.773Z,61.40
2023-05-04T21:52:02.646Z,61.30
2023-05-04T21:54:31.850Z,61.20
2023-05-04T21:57:00.970Z,61.40
2023-05-04T21:59:29.932Z,61.40
2023-05-04T22:01:58.924Z,61.40
2023-05-04T22:04:28.232Z,61.50
2023-05-04T22:06:57.326Z,61.50
2023-05-04T22:09:26.214Z,61.70
2023-05-04T22:11:55.107Z,62.10
2023-05-04T22:14:24.098Z,62.10
2023-05-04T22:16:53.367Z,61.80
2023-05-04T22:19:22.295Z,61.50
2023-05-04T22:21:51.395Z,61.10
2023-05-04T22:24:20.489Z,61.10
2023-05-04T22:26:49.694Z,60.90
2023-05-04T22:29:18.678Z,60.60
2023-05-04T22:31:47.683Z,60.30
2023-05-04T22:34:16.658Z,60.30
2023-05-04T22:36:46.183Z,60.50
2023-05-04T22:39:15.352Z,60.50
2023-05-04T22:41:44.573Z,60.40
2023-05-04T22:44:13.457Z,60.00
2023-05-04T22:46:42.927Z,60.60
2023-05-04T22:49:12.268Z,60.80
2023-05-04T22:51:41.365Z,60.90
2023-05-04T22:54:10.452Z,60.90
2023-05-04T22:56:39.765Z,60.80
2023-05-04T22:59:08.734Z,61.00
2023-05-04T23:01:37.736Z,61.10
2023-05-04T23:04:06.732Z,59.20
2023-05-04T23:06:36.034Z,60.30
2023-05-04T23:09:05.429Z,60.20
2023-05-04T23:11:34.434Z,60.50
2023-05-04T23:14:03.559Z,60.30
2023-05-04T23:16:32.532Z,60.40
2023-05-04T23:19:01.807Z,60.50
2023-05-04T23:21:31.017Z,60.80
2023-05-04T23:23:59.900Z,61.10
2023-05-04T23:26:28.806Z,61.40
2023-05-04T23:28:58.001Z,61.60
2023-05-04T23:31:26.965Z,61.60
2023-05-04T23:33:55.971Z,61.80
2023-05-04T23:36:24.975Z,61.80
2023-05-04T23:38:54.176Z,61.90
2023-05-04T23:41:23.580Z,61.90
2023-05-04T23:43:52.573Z,61.80
2023-05-04T23:46:21.459Z,62.00
2023-05-04T23:48:53.227Z,61.60
2023-05-04T23:51:22.208Z,61.60
2023-05-04T23:53:51.312Z,61.90
2023-05-04T23:56:20.623Z,61.70
2023-05-04T23:58:49.598Z,61.30
